createdAt,value
2019-02-27T10:51:23.891Z,7.93
2019-02-27T12:39:02.438Z,9.30
2019-02-27T12:41:32.526Z,9.20
2019-02-27T12:44:02.568Z,9.47
2019-02-27T12:46:34.072Z,8.27
2019-02-27T12:49:02.910Z,9.00
2019-02-27T12:51:32.191Z,9.30
2019-02-27T12:54:02.064Z,9.33
2019-02-27T12:56:31.356Z,8.87
2019-02-27T12:59:00.718Z,9.53
2019-02-27T13:01:30.013Z,9.87
2019-02-27T13:03:59.373Z,10.07
2019-02-27T13:06:28.705Z,9.43
2019-02-27T13:08:58.219Z,9.37
2019-02-27T13:11:27.561Z,9.90
2019-02-27T13:13:57.220Z,9.67
2019-02-27T13:16:28.065Z,9.73
2019-02-27T13:18:57.421Z,9.93
2019-02-27T13:21:26.728Z,9.17
2019-02-27T13:23:56.095Z,9.60
2019-02-27T13:26:25.423Z,9.30
2019-02-27T13:28:54.733Z,8.47
2019-02-27T13:31:24.078Z,9.00
2019-02-27T13:33:53.391Z,9.20
2019-02-27T13:36:22.756Z,9.00
2019-02-27T13:38:52.336Z,9.03
2019-02-27T13:41:23.711Z,7.57
2019-02-27T13:43:53.236Z,7.83
2019-02-27T13:46:22.906Z,8.97
2019-02-27T13:48:52.762Z,8.00
2019-02-27T13:51:22.073Z,8.03
2019-02-27T13:53:51.477Z,8.07
2019-02-27T13:56:20.839Z,8.03
2019-02-27T13:58:50.224Z,8.57
2019-02-27T14:01:19.629Z,7.93
2019-02-27T14:03:49.081Z,8.20
2019-02-27T14:06:18.442Z,8.33
2019-02-27T14:08:47.789Z,8.40
2019-02-27T14:11:17.160Z,7.97
2019-02-27T14:13:46.371Z,8.57
2019-02-27T14:16:15.712Z,8.23
2019-02-27T14:18:49.804Z,7.20
2019-02-27T14:21:16.134Z,8.07
2019-02-27T14:23:46.957Z,7.47
2019-02-27T14:26:16.580Z,7.43
2019-02-27T14:28:45.894Z,8.40
